Time;durP1;ratioP1;P1;durP2;ratioP2;P2;SDS_P1;SDS_P2;PMS_P1;PMS_P2;Temp;Humidity;BMP_temperature;BMP_pressure;BME280_temperature;BME280_humidity;BME280_pressure;Samples;Min_cycle;Max_cycle;Signal;HPM_P1;HPM_P2
2022/01/26 00:00:08;;;;;;;10.35;7.18;;;;;;;2.71;100.00;100713.88;5095269;28;20041;-80
2022/01/26 00:06:17;;;;;;;10.25;7.22;;;;;;;2.59;100.00;100705.84;5096214;28;20044;-81
2022/01/26 00:09:02;;;;;;;13.65;7.53;;;;;;;2.66;100.00;100718.06;5095251;28;20453;-81
2022/01/26 00:11:46;;;;;;;11.07;8.20;;;;;;;2.52;100.00;100711.75;5095876;28;20047;-81
2022/01/26 00:14:31;;;;;;;10.45;7.70;;;;;;;2.62;100.00;100695.59;5081022;28;20036;-81
2022/01/26 00:17:15;;;;;;;12.40;8.30;;;;;;;2.71;100.00;100721.66;5095827;28;20044;-81
2022/01/26 00:20:11;;;;;;;10.90;7.68;;;;;;;2.73;100.00;100711.31;5095018;28;20088;-81
2022/01/26 00:23:04;;;;;;;14.35;8.25;;;;;;;2.58;100.00;100692.06;5095819;28;20040;-81
2022/01/26 00:41:10;;;;;;;10.40;6.97;;;;;;;2.64;100.00;100685.28;5095707;28;20036;-80
2022/01/26 00:43:56;;;;;;;11.75;7.72;;;;;;;2.57;100.00;100676.53;5095018;28;20044;-80
2022/01/26 00:46:47;;;;;;;13.65;7.95;;;;;;;2.73;100.00;100699.28;5095683;28;20445;-80
2022/01/26 00:49:32;;;;;;;11.88;8.35;;;;;;;2.67;100.00;100693.09;5095123;28;20036;-80
2022/01/26 00:52:26;;;;;;;12.05;8.50;;;;;;;2.65;100.00;100687.03;5095605;28;20354;-80
2022/01/26 00:55:16;;;;;;;10.40;7.40;;;;;;;2.58;100.00;100673.94;5095608;28;20075;-80
2022/01/26 00:58:01;;;;;;;12.52;7.50;;;;;;;2.62;100.00;100676.59;5094622;28;20056;-81
2022/01/26 01:00:46;;;;;;;11.00;7.55;;;;;;;2.63;100.00;100671.44;5094808;28;20048;-80
2022/01/26 01:03:33;;;;;;;9.65;6.55;;;;;;;2.77;100.00;100693.31;5094852;28;20048;-81
2022/01/26 01:06:25;;;;;;;11.02;6.88;;;;;;;2.78;100.00;100694.19;5080768;28;20044;-80
2022/01/26 01:09:10;;;;;;;9.55;7.20;;;;;;;2.77;100.00;100674.34;5095518;28;20040;-80
2022/01/26 01:11:57;;;;;;;10.90;7.28;;;;;;;2.68;100.00;100671.56;5099217;28;20040;-80
2022/01/26 01:14:43;;;;;;;10.80;7.72;;;;;;;2.69;100.00;100683.66;5098440;28;20044;-80
2022/01/26 01:17:36;;;;;;;9.60;6.50;;;;;;;2.69;100.00;100652.59;5098351;28;20040;-80
2022/01/26 01:29:39;;;;;;;9.23;5.32;;;;;;;2.77;100.00;100659.69;5098250;28;20427;-81
2022/01/26 01:32:33;;;;;;;8.98;6.38;;;;;;;2.69;100.00;100658.66;5098147;28;20039;-82
2022/01/26 01:35:18;;;;;;;9.10;6.30;;;;;;;2.81;100.00;100668.38;5098053;28;20048;-81
2022/01/26 01:38:12;;;;;;;10.00;7.18;;;;;;;2.67;100.00;100675.88;5098010;28;20119;-81
2022/01/26 01:40:57;;;;;;;;;;;;;;;2.72;100.00;100676.81;5098356;28;20406;-81
2022/01/26 01:43:41;;;;;;;7.30;5.35;;;;;;;2.75;100.00;100676.00;5083769;28;20019;-81
2022/01/26 01:46:28;;;;;;;6.78;5.03;;;;;;;2.60;100.00;100649.81;5097892;28;20067;-80
2022/01/26 01:49:14;;;;;;;9.15;5.18;;;;;;;2.64;100.00;100649.94;5098571;28;20039;-80
2022/01/26 01:52:02;;;;;;;7.95;5.72;;;;;;;2.62;100.00;100637.81;5098388;28;20442;-80
2022/01/26 01:54:53;;;;;;;11.05;5.60;;;;;;;2.64;100.00;100652.53;5097639;28;20048;-80
2022/01/26 01:57:38;;;;;;;8.30;5.28;;;;;;;2.65;100.00;100643.91;5097356;28;20464;-81
2022/01/26 02:00:25;;;;;;;7.88;5.57;;;;;;;2.67;100.00;100631.88;5097797;28;20111;-80
2022/01/26 02:03:09;;;;;;;6.05;4.93;;;;;;;2.66;100.00;100634.44;5098281;28;20044;-80
2022/01/26 02:05:54;;;;;;;9.57;6.15;;;;;;;2.57;100.00;100637.72;5098218;28;20040;-80
2022/01/26 02:08:42;;;;;;;7.50;5.40;;;;;;;2.60;100.00;100640.38;5097435;28;20430;-79
2022/01/26 02:11:26;;;;;;;5.97;4.82;;;;;;;2.54;100.00;100633.34;5098170;28;20497;-80
2022/01/26 02:14:17;;;;;;;7.00;5.35;;;;;;;2.63;100.00;100635.22;5098039;28;20095;-80
2022/01/26 02:17:33;;;;;;;6.72;5.25;;;;;;;2.74;100.00;100654.44;5097098;28;20072;-80
2022/01/26 02:53:56;;;;;;;6.03;4.38;;;;;;;2.58;100.00;100634.28;5096511;28;20036;-81
2022/01/26 02:56:54;;;;;;;5.88;4.53;;;;;;;2.45;100.00;100616.78;5096207;28;20044;-81
2022/01/26 03:00:10;;;;;;;5.22;3.95;;;;;;;2.53;100.00;100641.94;5096398;28;20127;-81
2022/01/26 03:03:13;;;;;;;6.40;4.60;;;;;;;2.51;100.00;100632.41;5082022;28;20044;-80
2022/01/26 03:06:04;;;;;;;6.50;4.20;;;;;;;2.55;100.00;100640.25;5096349;28;20077;-81
2022/01/26 03:08:55;;;;;;;6.22;4.43;;;;;;;2.27;100.00;100610.34;5096240;28;20040;-80
2022/01/26 03:11:41;;;;;;;5.57;3.88;;;;;;;2.55;100.00;100647.16;5096201;28;20128;-80
2022/01/26 03:17:25;;;;;;;5.15;3.67;;;;;;;2.43;100.00;100632.25;5096216;28;20036;-80
2022/01/26 03:20:13;;;;;;;5.25;4.10;;;;;;;2.41;100.00;100621.00;5096925;28;20047;-81
2022/01/26 03:34:36;;;;;;;3.85;3.03;;;;;;;2.55;100.00;100634.22;5095967;28;20040;-80
2022/01/26 03:37:30;;;;;;;7.85;3.38;;;;;;;2.55;100.00;100635.09;5096448;28;20372;-80
2022/01/26 03:40:15;;;;;;;;;;;;;;;2.52;100.00;100636.75;5096179;28;20365;-80
2022/01/26 03:43:00;;;;;;;4.20;3.33;;;;;;;2.50;100.00;100625.47;5095673;28;19920;-79
2022/01/26 03:45:44;;;;;;;4.18;3.08;;;;;;;2.34;100.00;100627.78;5095628;28;20123;-80
2022/01/26 03:48:29;;;;;;;4.97;3.13;;;;;;;2.53;100.00;100647.09;5095691;28;20089;-82
2022/01/26 03:51:13;;;;;;;4.90;3.35;;;;;;;2.48;100.00;100633.22;5081433;28;20039;-82
2022/01/26 03:53:58;;;;;;;7.13;3.60;;;;;;;2.39;100.00;100622.69;5095572;28;20044;-82
2022/01/26 03:56:42;;;;;;;4.75;3.67;;;;;;;2.54;100.00;100635.94;5095326;28;20056;-81
2022/01/26 03:59:27;;;;;;;11.13;6.05;;;;;;;2.61;100.00;100636.94;5095592;28;20051;-80
2022/01/26 04:02:11;;;;;;;9.85;5.90;;;;;;;2.58;100.00;100642.03;5096310;28;20040;-80
2022/01/26 04:05:00;;;;;;;6.55;5.45;;;;;;;2.57;100.00;100629.97;5095394;28;20036;-80
2022/01/26 04:07:45;;;;;;;41.22;30.75;;;;;;;2.49;100.00;100619.44;5081083;28;20358;-80
2022/01/26 04:13:14;;;;;;;363.25;161.40;;;;;;;2.51;100.00;100620.34;5095328;28;20073;-81
2022/01/26 04:15:58;;;;;;;242.75;111.97;;;;;;;2.66;100.00;100621.50;5095132;28;20327;-80
2022/01/26 04:18:43;;;;;;;255.80;114.75;;;;;;;2.70;100.00;100634.53;5095185;28;20369;-80
2022/01/26 04:24:39;;;;;;;200.60;114.90;;;;;;;2.55;100.00;100640.25;5095960;28;20047;-81
2022/01/26 04:28:02;;;;;;;102.05;62.17;;;;;;;2.46;100.00;100608.16;5095165;28;20457;-81
2022/01/26 04:30:34;;;;;;;38.28;29.30;;;;;;;2.56;100.00;100639.41;5095189;28;20040;-82
2022/01/26 04:33:19;;;;;;;26.60;21.38;;;;;;;2.49;100.00;100619.44;5095244;28;20044;-81
2022/01/26 04:36:08;;;;;;;25.80;19.90;;;;;;;2.31;100.00;100604.44;5095031;28;20044;-81
2022/01/26 04:38:56;;;;;;;12.63;10.35;;;;;;;2.50;100.00;100631.56;5094927;28;20039;-81
2022/01/26 04:41:46;;;;;;;10.43;8.65;;;;;;;2.44;100.00;100620.19;5094924;28;20120;-81
2022/01/26 04:44:41;;;;;;;6.57;5.63;;;;;;;2.50;100.00;100617.72;5082075;28;20032;-81
2022/01/26 04:47:25;;;;;;;5.90;4.75;;;;;;;2.44;100.00;100605.56;5099084;28;20090;-81
2022/01/26 04:50:11;;;;;;;6.35;4.47;;;;;;;2.53;100.00;100630.72;5099063;28;20078;-81
2022/01/26 04:52:55;;;;;;;6.40;4.03;;;;;;;2.46;100.00;100634.03;5099670;28;20050;-80
2022/01/26 04:55:40;;;;;;;5.30;3.88;;;;;;;2.39;100.00;100603.72;5099506;28;20408;-81
2022/01/26 04:58:24;;;;;;;5.55;3.25;;;;;;;2.47;100.00;100618.56;5098647;28;20339;-80
2022/01/26 05:01:08;;;;;;;5.00;3.70;;;;;;;2.48;100.00;100619.44;5084480;28;20068;-80
2022/01/26 05:03:52;;;;;;;6.97;5.30;;;;;;;2.51;100.00;100619.50;5098696;28;20036;-80
2022/01/26 05:06:37;;;;;;;166.52;63.28;;;;;;;2.54;100.00;100633.34;5098770;28;20153;-82
2022/01/26 05:09:22;;;;;;;201.32;72.68;;;;;;;2.54;100.00;100611.78;5098644;28;20039;-81
2022/01/26 05:12:07;;;;;;;339.98;115.72;;;;;;;2.48;100.00;100604.78;5099500;28;20449;-82
2022/01/26 05:14:52;;;;;;;151.23;60.53;;;;;;;2.58;100.00;100601.53;5084120;28;20056;-81
2022/01/26 05:17:37;;;;;;;67.63;34.47;;;;;;;2.46;100.00;100596.09;5098427;28;20101;-80
2022/01/26 05:20:21;;;;;;;29.35;17.92;;;;;;;2.66;100.00;100606.84;5084234;28;20040;-80
2022/01/26 05:23:08;;;;;;;11.40;7.88;;;;;;;2.66;100.00;100608.56;5098964;28;20044;-80
2022/01/26 05:25:53;;;;;;;6.35;4.93;;;;;;;2.62;100.00;100610.22;5083993;28;20386;-80
2022/01/26 05:28:37;;;;;;;6.50;5.32;;;;;;;2.67;100.00;100607.75;5098306;28;20052;-80
2022/01/26 05:31:21;;;;;;;6.95;6.03;;;;;;;2.62;100.00;100611.94;5098903;28;20044;-80
2022/01/26 05:34:07;;;;;;;6.95;5.03;;;;;;;2.65;100.00;100612.00;5098143;28;20048;-79
2022/01/26 05:36:51;;;;;;;6.47;4.07;;;;;;;2.55;100.00;100600.59;5097948;28;20040;-80
2022/01/26 05:39:38;;;;;;;5.40;3.83;;;;;;;2.68;100.00;100600.00;5098009;28;20051;-80
2022/01/26 05:42:22;;;;;;;7.60;4.57;;;;;;;2.76;100.00;100616.56;5098044;28;20063;-80
2022/01/26 05:45:17;;;;;;;7.65;6.07;;;;;;;2.70;100.00;100606.09;5098757;28;20047;-80
2022/01/26 05:48:05;;;;;;;7.45;5.28;;;;;;;2.76;100.00;100600.13;5098627;28;20346;-80
2022/01/26 05:50:52;;;;;;;8.63;5.68;;;;;;;2.72;100.00;100599.19;5098027;28;20135;-80
2022/01/26 05:53:38;;;;;;;6.60;4.80;;;;;;;2.67;100.00;100594.81;5097847;28;20077;-80
2022/01/26 05:56:23;;;;;;;14.43;6.10;;;;;;;2.72;100.00;100585.41;5096391;28;20044;-80
2022/01/26 05:59:08;;;;;;;6.93;5.20;;;;;;;2.60;100.00;100587.75;5083220;28;20335;-80
2022/01/26 06:01:53;;;;;;;7.20;5.20;;;;;;;2.52;100.00;100570.38;5083179;28;20047;-81
2022/01/26 06:04:37;;;;;;;9.15;6.35;;;;;;;2.60;100.00;100599.00;5097701;28;20048;-80
2022/01/26 06:07:21;;;;;;;11.52;7.00;;;;;;;2.63;100.00;100593.84;5097481;28;20105;-83
2022/01/26 06:10:05;;;;;;;8.77;5.10;;;;;;;2.59;100.00;100589.47;5096140;28;20051;-83
2022/01/26 06:12:50;;;;;;;12.48;6.65;;;;;;;2.74;100.00;100601.84;5096226;28;20449;-82
2022/01/26 06:15:34;;;;;;;19.70;8.85;;;;;;;2.75;100.00;100603.56;5081222;28;20060;-82
2022/01/26 06:18:19;;;;;;;12.23;7.03;;;;;;;2.73;100.00;100589.72;5095501;28;20051;-82
2022/01/26 06:21:03;;;;;;;12.27;7.13;;;;;;;2.72;100.00;100595.75;5095486;28;20400;-82
2022/01/26 06:23:48;;;;;;;13.95;6.80;;;;;;;2.82;100.00;100595.06;5095996;28;20058;-82
2022/01/26 06:26:33;;;;;;;9.32;6.40;;;;;;;2.75;100.00;100582.88;5095283;28;20047;-81
2022/01/26 06:29:18;;;;;;;8.68;6.03;;;;;;;2.71;100.00;100581.09;5095164;28;20044;-82
2022/01/26 06:32:02;;;;;;;9.52;6.30;;;;;;;2.80;100.00;100579.53;5095077;28;20048;-82
2022/01/26 06:34:47;;;;;;;11.18;6.60;;;;;;;2.86;100.00;100589.13;5080871;28;20058;-81
2022/01/26 06:37:32;;;;;;;9.18;7.38;;;;;;;2.79;100.00;100580.41;5097215;28;20048;-82
2022/01/26 06:40:16;;;;;;;9.60;6.40;;;;;;;2.79;100.00;100574.31;5082475;28;20040;-82
2022/01/26 06:43:06;;;;;;;10.10;6.45;;;;;;;2.72;100.00;100569.88;5096530;28;20350;-81
2022/01/26 06:45:56;;;;;;;12.00;7.25;;;;;;;2.86;100.00;100571.03;5097075;28;20450;-81
2022/01/26 06:51:44;;;;;;;15.60;6.93;;;;;;;2.65;100.00;100574.06;5096365;28;20048;-81
2022/01/26 06:54:28;;;;;;;9.98;6.53;;;;;;;2.78;100.00;100580.34;5096559;28;20044;-81
2022/01/26 06:57:13;;;;;;;8.70;6.38;;;;;;;2.79;100.00;100570.03;5096731;28;20451;-81
2022/01/26 06:59:58;;;;;;;10.25;7.40;;;;;;;2.90;100.00;100575.41;5096668;28;20036;-81
2022/01/26 07:02:43;;;;;;;12.07;6.90;;;;;;;2.80;100.00;100576.94;5095506;28;20444;-81
2022/01/26 07:05:28;;;;;;;10.20;6.30;;;;;;;2.78;100.00;100573.44;5096442;28;20040;-81
2022/01/26 07:08:12;;;;;;;10.75;6.43;;;;;;;2.73;100.00;100567.34;5097023;28;20449;-81
2022/01/26 07:10:57;;;;;;;10.30;7.10;;;;;;;2.74;100.00;100560.44;5082504;28;20043;-81
2022/01/26 07:13:42;;;;;;;10.95;6.97;;;;;;;2.78;100.00;100563.09;5096635;28;20051;-81
2022/01/26 07:22:34;;;;;;;7.40;6.00;;;;;;;2.83;100.00;100576.16;5096969;28;20050;-82
2022/01/26 07:25:18;;;;;;;8.43;6.32;;;;;;;2.70;100.00;100572.44;5097205;28;20039;-82
2022/01/26 07:28:04;;;;;;;12.73;9.48;;;;;;;2.80;100.00;100571.78;5097287;28;20040;-82
2022/01/26 07:30:50;;;;;;;10.45;7.75;;;;;;;2.79;100.00;100570.03;5081863;28;20036;-81
2022/01/26 07:33:36;;;;;;;21.92;16.80;;;;;;;2.88;100.00;100574.50;5096168;28;20059;-81
2022/01/26 07:36:22;;;;;;;309.63;147.13;;;;;;;2.83;100.00;100583.91;5096601;28;20422;-81
2022/01/26 07:39:10;;;;;;;193.55;91.40;;;;;;;2.85;100.00;100582.19;5082051;28;20040;-82
2022/01/26 07:41:55;;;;;;;35.15;26.77;;;;;;;2.79;100.00;100575.22;5096236;28;20036;-82
2022/01/26 07:44:39;;;;;;;24.15;21.85;;;;;;;2.77;100.00;100578.63;5096971;28;20070;-81
2022/01/26 07:47:24;;;;;;;37.58;33.85;;;;;;;2.72;100.00;100583.69;5096866;28;20044;-82
2022/01/26 07:50:12;;;;;;;30.15;26.58;;;;;;;2.83;100.00;100586.50;5096021;28;20097;-81
2022/01/26 07:52:59;;;;;;;45.35;39.38;;;;;;;2.84;100.00;100577.88;5081857;28;20044;-82
2022/01/26 07:55:43;;;;;;;77.95;65.82;;;;;;;2.78;100.00;100577.75;5096058;28;20135;-82
2022/01/26 07:58:28;;;;;;;39.25;34.05;;;;;;;2.86;100.00;100576.19;5095269;28;20354;-82
2022/01/26 08:01:13;;;;;;;315.90;103.65;;;;;;;2.86;100.00;100585.66;5095993;28;20060;-81
2022/01/26 08:03:58;;;;;;;51.78;25.55;;;;;;;2.85;100.00;100586.50;5081952;28;20040;-82
2022/01/26 08:06:42;;;;;;;20.27;13.00;;;;;;;2.97;100.00;100581.56;5096263;28;20161;-81
2022/01/26 08:09:26;;;;;;;24.83;13.30;;;;;;;2.94;100.00;100571.16;5096551;28;20047;-82
2022/01/26 08:12:12;;;;;;;20.98;12.82;;;;;;;3.03;100.00;100574.78;5096596;28;20406;-82
2022/01/26 08:14:56;;;;;;;22.13;14.65;;;;;;;3.04;100.00;100576.50;5095391;28;20381;-82
2022/01/26 08:17:41;;;;;;;22.27;13.00;;;;;;;3.01;100.00;100576.47;5096017;28;20063;-81
2022/01/26 08:20:25;;;;;;;16.30;10.18;;;;;;;2.99;100.00;100570.41;5080647;28;20037;-82
2022/01/26 08:23:10;;;;;;;25.90;14.57;;;;;;;3.10;100.00;100578.34;5095268;28;20032;-82
2022/01/26 08:25:55;;;;;;;15.43;10.25;;;;;;;3.12;100.00;100581.84;5096610;28;20040;-82
2022/01/26 08:28:42;;;;;;;54.40;24.45;;;;;;;3.05;100.00;100574.78;5095542;28;20048;-81
2022/01/26 08:31:28;;;;;;;31.15;14.48;;;;;;;3.03;100.00;100581.69;5081025;28;20048;-81
2022/01/26 08:34:12;;;;;;;17.15;8.63;;;;;;;3.14;100.00;100581.84;5095198;28;20138;-81
2022/01/26 08:36:56;;;;;;;11.63;7.63;;;;;;;2.99;100.00;100582.44;5095061;28;20043;-81
2022/01/26 08:39:40;;;;;;;11.73;7.60;;;;;;;3.11;100.00;100576.63;5095079;28;20040;-81
2022/01/26 08:42:25;;;;;;;12.43;6.97;;;;;;;3.17;100.00;100585.38;5095765;28;20407;-81
2022/01/26 08:45:10;;;;;;;11.40;7.18;;;;;;;3.16;100.00;100591.41;5095042;28;20044;-81
2022/01/26 08:47:55;;;;;;;18.33;12.15;;;;;;;3.00;100.00;100582.50;5095936;28;20044;-80
2022/01/26 08:50:40;;;;;;;19.02;11.93;;;;;;;3.18;100.00;100588.81;5081327;28;20399;-81
2022/01/26 08:53:24;;;;;;;22.10;13.93;;;;;;;3.10;100.00;100585.25;5094992;28;20051;-81
2022/01/26 08:56:08;;;;;;;18.60;9.25;;;;;;;3.07;100.00;100583.47;5096101;28;20041;-80
2022/01/26 08:58:54;;;;;;;12.77;9.93;;;;;;;3.10;100.00;100588.69;5080472;28;20052;-80
2022/01/26 09:01:38;;;;;;;16.83;8.88;;;;;;;3.16;100.00;100587.94;5094870;28;20040;-81
2022/01/26 09:04:23;;;;;;;28.13;13.80;;;;;;;3.06;100.00;100581.72;5096057;28;20442;-80
2022/01/26 09:07:09;;;;;;;19.20;12.48;;;;;;;3.12;100.00;100592.19;5095201;28;20036;-81
2022/01/26 09:09:55;;;;;;;38.95;25.45;;;;;;;3.10;100.00;100580.94;5094774;28;20036;-80
2022/01/26 09:12:42;;;;;;;32.13;18.42;;;;;;;3.20;100.00;100585.41;5095984;28;20055;-81
2022/01/26 09:15:29;;;;;;;18.50;7.38;;;;;;;3.25;100.00;100582.91;5081032;28;20101;-80
2022/01/26 09:18:18;;;;;;;24.38;13.68;;;;;;;3.13;100.00;100581.00;5080926;28;20040;-81
2022/01/26 09:21:03;;;;;;;29.25;11.07;;;;;;;3.26;100.00;100588.13;5095631;28;20093;-81
2022/01/26 09:23:48;;;;;;;20.73;8.85;;;;;;;2.99;100.00;100554.88;5095552;28;20036;-80
2022/01/26 09:26:32;;;;;;;27.58;9.82;;;;;;;3.19;100.00;100583.69;5080871;28;20044;-81
2022/01/26 09:29:16;;;;;;;40.13;19.05;;;;;;;3.20;100.00;100584.56;5094842;28;20068;-80
2022/01/26 09:32:02;;;;;;;22.15;9.05;;;;;;;3.32;100.00;100578.72;5097942;28;20342;-80
2022/01/26 09:34:47;;;;;;;20.45;6.93;;;;;;;3.31;100.00;100583.00;5098152;28;20052;-81
2022/01/26 09:37:31;;;;;;;13.50;5.95;;;;;;;3.31;100.00;100584.72;5098102;28;20411;-81
2022/01/26 09:40:16;;;;;;;19.25;7.75;;;;;;;3.23;100.00;100587.19;5098099;28;20044;-81
2022/01/26 09:43:00;;;;;;;27.95;14.07;;;;;;;3.15;100.00;100583.59;5098084;28;20051;-80
2022/01/26 09:45:45;;;;;;;43.30;17.48;;;;;;;3.18;100.00;100588.81;5098307;28;20043;-80
2022/01/26 09:48:30;;;;;;;27.08;11.95;;;;;;;3.15;100.00;100574.13;5098589;28;20346;-81
2022/01/26 09:51:17;;;;;;;17.05;9.07;;;;;;;3.15;100.00;100570.66;5098364;28;20123;-80
2022/01/26 09:54:04;;;;;;;21.15;9.95;;;;;;;3.27;100.00;100568.28;5099047;28;20036;-80
2022/01/26 09:56:51;;;;;;;25.52;11.40;;;;;;;3.21;100.00;100578.53;5097934;28;20032;-80
2022/01/26 09:59:36;;;;;;;47.55;20.38;;;;;;;3.32;100.00;100576.13;5098407;28;20040;-80
2022/01/26 10:02:27;;;;;;;40.28;17.08;;;;;;;3.32;100.00;100573.53;5069253;28;20067;-80
2022/01/26 10:05:16;;;;;;;35.00;13.38;;;;;;;3.32;100.00;100574.41;5083229;28;20051;-81
2022/01/26 10:17:23;;;;;;;72.68;32.13;;;;;;;3.30;100.00;100555.38;5097309;28;20499;-80
2022/01/26 10:20:04;;;;;;;23.88;13.43;;;;;;;3.28;100.00;100560.53;5097400;28;20043;-81
2022/01/26 10:22:49;;;;;;;14.52;8.02;;;;;;;3.37;100.00;100549.44;5098075;28;20058;-80
2022/01/26 10:25:33;;;;;;;15.68;9.55;;;;;;;3.37;100.00;100552.03;5083042;28;20353;-83
2022/01/26 10:28:18;;;;;;;23.95;14.20;;;;;;;3.50;100.00;100542.72;5083109;28;20416;-81
2022/01/26 10:31:12;;;;;;;18.45;9.43;;;;;;;3.52;100.00;100546.22;5098178;28;20036;-81
2022/01/26 10:34:00;;;;;;;18.42;9.30;;;;;;;3.51;100.00;100539.31;5096528;28;20044;-80
2022/01/26 10:36:57;;;;;;;14.70;8.43;;;;;;;3.59;100.00;100535.09;5095811;28;20119;-80
2022/01/26 10:39:47;;;;;;;12.80;7.22;;;;;;;3.50;100.00;100522.00;5095897;28;20350;-80
2022/01/26 10:42:31;;;;;;;9.88;6.90;;;;;;;3.59;100.00;100529.06;5094486;28;20040;-80
2022/01/26 10:45:19;;;;;;;9.68;5.72;;;;;;;3.67;100.00;100530.94;5080816;28;20055;-80
2022/01/26 10:48:25;;;;;;;7.55;4.32;;;;;;;3.62;100.00;100524.78;5066438;28;20439;-82
2022/01/26 10:54:38;;;;;;;6.15;3.92;;;;;;;3.57;100.00;100526.44;5096794;28;20036;-81
2022/01/26 10:57:24;;;;;;;4.55;3.58;;;;;;;3.67;100.00;100537.81;5097181;28;20048;-80
2022/01/26 11:00:08;;;;;;;8.48;6.18;;;;;;;3.53;100.00;100529.84;5082334;28;20108;-80
2022/01/26 11:02:57;;;;;;;6.55;5.28;;;;;;;3.47;100.00;100527.16;5097557;28;20040;-80
2022/01/26 11:05:43;;;;;;;7.97;4.20;;;;;;;3.61;100.00;100536.00;5096823;28;20120;-80
2022/01/26 11:08:28;;;;;;;6.85;4.28;;;;;;;3.52;100.00;100530.69;5082288;28;20044;-80
2022/01/26 11:11:23;;;;;;;11.30;4.28;;;;;;;3.49;100.00;100534.09;5082718;28;20067;-80
2022/01/26 11:14:21;;;;;;;7.20;4.90;;;;;;;3.58;100.00;100530.78;5096430;28;20339;-80
2022/01/26 11:17:06;;;;;;;5.28;4.18;;;;;;;3.50;100.00;100529.78;5096949;28;20040;-80
2022/01/26 11:19:50;;;;;;;10.00;6.43;;;;;;;3.63;100.00;100534.28;5097027;28;20098;-80
2022/01/26 11:22:34;;;;;;;10.40;6.63;;;;;;;3.70;100.00;100546.47;5097479;28;20036;-80
2022/01/26 11:25:21;;;;;;;8.25;5.43;;;;;;;3.73;100.00;100533.56;5096827;28;20036;-80
2022/01/26 11:28:20;;;;;;;14.55;8.15;;;;;;;3.68;100.00;100513.66;5096776;28;20044;-80
2022/01/26 11:31:16;;;;;;;8.95;5.40;;;;;;;3.58;100.00;100514.38;5096558;28;20109;-80
2022/01/26 11:34:00;;;;;;;22.33;11.00;;;;;;;3.72;100.00;100528.38;5096047;28;20043;-80
2022/01/26 11:36:45;;;;;;;13.45;7.10;;;;;;;3.64;100.00;100529.97;5097204;28;20436;-80
2022/01/26 11:45:35;;;;;;;18.10;10.32;;;;;;;3.49;100.00;100510.78;5095738;28;20032;-80
2022/01/26 11:48:24;;;;;;;20.50;12.48;;;;;;;3.63;100.00;100513.56;5095761;28;20404;-80
2022/01/26 11:51:09;;;;;;;30.23;16.52;;;;;;;3.62;100.00;100511.84;5096172;28;20044;-80
2022/01/26 11:53:53;;;;;;;44.92;21.00;;;;;;;3.61;100.00;100517.00;5095534;28;20094;-80
2022/01/26 11:56:38;;;;;;;60.22;28.60;;;;;;;3.50;100.00;100509.94;5096115;28;20119;-82
2022/01/26 11:59:24;;;;;;;52.40;27.92;;;;;;;3.51;100.00;100505.66;5104123;28;20096;-83
2022/01/26 12:02:35;;;;;;;30.55;20.83;;;;;;;3.46;100.00;100515.06;5114535;28;20317;-80
2022/01/26 12:05:23;;;;;;;77.63;47.03;;;;;;;3.46;100.00;100521.09;5115017;28;20035;-80
2022/01/26 12:08:07;;;;;;;113.38;59.63;;;;;;;3.48;100.00;100515.97;5114927;28;20457;-80
2022/01/26 12:10:52;;;;;;;50.85;28.85;;;;;;;3.61;100.00;100504.94;5113910;28;20040;-80
2022/01/26 12:13:38;;;;;;;64.68;36.15;;;;;;;3.67;100.00;100514.47;5114679;28;20048;-80
2022/01/26 12:16:24;;;;;;;76.20;49.92;;;;;;;3.52;100.00;100509.97;5114519;28;20040;-80
2022/01/26 12:43:44;;;;;;;15.43;10.38;;;;;;;3.56;100.00;100518.66;5101133;28;20052;-80
2022/01/26 12:46:30;;;;;;;13.07;8.98;;;;;;;3.43;100.00;100515.88;5101469;28;20054;-80
2022/01/26 12:49:17;;;;;;;17.92;11.55;;;;;;;3.45;100.00;100502.97;5101635;28;20414;-79
2022/01/26 12:52:03;;;;;;;23.15;14.00;;;;;;;3.40;100.00;100500.28;5115434;28;20047;-80
2022/01/26 12:54:47;;;;;;;14.38;9.73;;;;;;;3.38;100.00;100498.50;5101070;28;20070;-80
2022/01/26 12:57:42;;;;;;;18.60;10.98;;;;;;;3.30;100.00;100505.31;5115503;28;20050;-79
2022/01/26 13:00:41;;;;;;;14.52;8.95;;;;;;;3.45;100.00;100513.31;5115440;28;20036;-79
2022/01/26 13:03:29;;;;;;;11.05;7.82;;;;;;;3.37;100.00;100517.50;5115979;28;20050;-79
2022/01/26 13:06:22;;;;;;;10.85;7.53;;;;;;;3.39;100.00;100519.28;5117813;28;20118;-79
2022/01/26 13:09:38;;;;;;;16.98;9.68;;;;;;;3.36;100.00;100519.22;5090544;28;20056;-79
2022/01/26 13:12:32;;;;;;;25.23;12.80;;;;;;;3.22;100.00;100516.44;5119318;28;20448;-80
2022/01/26 13:15:22;;;;;;;25.92;14.18;;;;;;;3.21;100.00;100491.34;5120304;28;20046;-79
2022/01/26 13:18:31;;;;;;;24.25;15.40;;;;;;;3.30;100.00;100513.06;5120153;28;20036;-79
2022/01/26 13:24:35;;;;;;;90.78;44.92;;;;;;;3.15;100.00;100495.56;5119830;28;20104;-79
2022/01/26 13:27:53;;;;;;;56.58;36.67;;;;;;;3.14;100.00;100499.88;5118900;28;20072;-79
2022/01/26 13:50:47;;;;;;;94.40;43.45;;;;;;;3.09;100.00;100467.00;5118602;28;20036;-79
2022/01/26 13:53:47;;;;;;;33.10;23.42;;;;;;;3.11;100.00;100467.91;5118998;28;20035;-79
2022/01/26 13:59:52;;;;;;;132.02;59.17;;;;;;;3.07;100.00;100473.88;5104574;28;20112;-79
2022/01/26 14:02:38;;;;;;;28.67;23.52;;;;;;;3.09;100.00;100464.41;5118792;28;20048;-78
2022/01/26 14:05:22;;;;;;;286.48;104.32;;;;;;;3.03;100.00;100471.25;5118794;28;20036;-79
2022/01/26 14:08:07;;;;;;;75.82;39.63;;;;;;;3.17;100.00;100470.59;5117953;28;20047;-79
2022/01/26 14:10:51;;;;;;;59.15;38.72;;;;;;;3.12;100.00;100477.41;5117927;28;20047;-78
2022/01/26 14:13:37;;;;;;;260.00;90.10;;;;;;;3.00;100.00;100470.34;5118599;28;20040;-78
2022/01/26 14:16:22;;;;;;;179.15;65.70;;;;;;;3.10;100.00;100473.94;5117382;28;20035;-78
2022/01/26 14:22:17;;;;;;;103.10;42.30;;;;;;;3.11;100.00;100473.94;5118221;28;20044;-78
2022/01/26 14:25:17;;;;;;;47.53;21.73;;;;;;;2.89;100.00;100439.06;5117687;28;20081;-78
2022/01/26 14:28:06;;;;;;;82.57;30.33;;;;;;;2.98;100.00;100472.88;5118328;28;20072;-78
2022/01/26 15:40:18;;;;;;;105.65;44.88;;;;;;;2.63;100.00;100445.53;5117364;28;20046;-79
2022/01/26 15:49:50;;;;;;;45.00;20.98;;;;;;;2.54;100.00;100448.88;5116025;28;20085;-79
2022/01/26 16:07:38;;;;;;;124.22;54.28;;;;;;;2.42;100.00;100423.66;5115681;28;20043;-78
2022/01/26 16:19:55;;;;;;;51.95;29.67;;;;;;;2.26;100.00;100439.72;5095976;28;20426;-78
2022/01/26 16:35:12;;;;;;;23.70;15.85;;;;;;;2.18;100.00;100438.69;5080927;28;20052;-78
2022/01/26 16:37:57;;;;;;;47.13;19.90;;;;;;;2.20;100.00;100430.13;5095722;28;20036;-78
2022/01/26 17:11:13;;;;;;;;;;;;;;;2.22;100.00;100449.13;5099104;28;20105;-78
2022/01/26 18:26:47;;;;;;;21.95;12.60;;;;;;;1.82;100.00;100398.38;5097901;28;20040;-79
2022/01/26 18:38:54;;;;;;;32.73;16.13;;;;;;;1.92;100.00;100400.34;5096902;28;20392;-79
2022/01/26 18:50:48;;;;;;;38.10;16.98;;;;;;;1.89;100.00;100386.50;5096639;28;20339;-78
2022/01/26 18:53:32;;;;;;;23.40;12.07;;;;;;;1.76;100.00;100382.78;5096830;28;20067;-79
2022/01/26 18:56:17;;;;;;;27.65;14.32;;;;;;;1.77;100.00;100400.03;5082546;28;20036;-79
2022/01/26 18:59:02;;;;;;;19.88;12.40;;;;;;;1.83;100.00;100397.56;5096428;28;20131;-79
2022/01/26 19:01:48;;;;;;;28.35;13.55;;;;;;;1.82;100.00;100386.38;5096485;28;20040;-79
2022/01/26 19:04:38;;;;;;;24.40;12.13;;;;;;;1.70;100.00;100375.78;5081806;28;20052;-80
2022/01/26 19:07:24;;;;;;;27.70;12.07;;;;;;;1.69;100.00;100399.88;5082225;28;20044;-79
2022/01/26 19:10:09;;;;;;;17.80;9.65;;;;;;;1.73;100.00;100404.25;5096399;28;20043;-79
2022/01/26 19:12:54;;;;;;;19.23;9.70;;;;;;;1.63;100.00;100397.16;5096199;28;20121;-79
2022/01/26 19:15:39;;;;;;;15.20;7.65;;;;;;;1.62;100.00;100396.28;5096349;28;20036;-79
2022/01/26 19:18:37;;;;;;;12.38;7.70;;;;;;;1.48;100.00;100389.09;5096371;28;20350;-79
2022/01/26 19:21:48;;;;;;;19.65;10.02;;;;;;;1.37;100.00;100368.22;5096172;28;20417;-79
2022/01/26 19:27:29;;;;;;;19.77;9.55;;;;;;;1.45;100.00;100374.41;5096854;28;20093;-79
2022/01/26 19:51:29;;;;;;;20.00;11.43;;;;;;;1.46;100.00;100407.13;5095632;28;20063;-78